Main page
METAR-TAF:

METAR-TAF

Airports :

Jersey Airport

Jersey,

latitude: 49-13N, longitude: 002-12W, elevation: 84 m

Current weather observation

The report was made 31 minutes ago, at 16:20 UTC
Wind 6 kt from the East/Northeast
Temperature 15°C
Humidity 82%
Pressure 1006 hPa
Visibility 10 km or more
Few clouds at a height of 800 ft

METAR: EGJJ 231620Z 07006KT 9999 FEW008 15/12 Q1006

Time: 17:51 (16:51 UTC)

Forecast

The report was made 2 hours and 52 minutes ago, at 13:59 UTC
Forecast valid from 23 at 15 UTC to 24 at 00 UTC
Wind 11 kt from the East/Northeast
Visibility 10 km or more
Few clouds at a height of 1000 ft
Probability 40% :
Temporary
from 23 at 15 UTC to 24 at 00 UTC
Visibility: 6000 m
Broken clouds at a height of 600 ft
light rain, drizzle
Becoming
from 23 at 18 UTC to 23 at 20 UTC
Wind 4 kt from variable directions

TAF: EGJJ 231359Z 2315/2400 06011KT 9999 FEW010 PROB40 TEMPO 2315/2400 6000 -RADZ BKN006 BECMG 2318/2320 VRB04KT

Weather observations and forecasts of more than 4000 airports (METAR and TAF reports).

The available stations are represented by yellow and red dots on the map.

Hover mouse over dot to see the name of the station.

Then click to see weather observations and forecasts.

To change the map : click on the green buttons with a black cross to zoom in, on the green button with a dash to zoom out, or on the green arrows for adjacent maps.


METAR-TAF: